Time;durP1;ratioP1;P1;durP2;ratioP2;P2;SDS_P1;SDS_P2;PMS_P1;PMS_P2;Temp;Humidity;BMP_temperature;BMP_pressure;BME280_temperature;BME280_humidity;BME280_pressure;Samples;Min_cycle;Max_cycle;Signal;HPM_P1;HPM_P2
2024/04/08 00:01:44;;;;;;;25.92;19.70;;;26.30;46.20;;;;;;10441335;28;20520;-54
2024/04/08 00:06:45;;;;;;;26.63;20.15;;;26.40;46.10;;;;;;10473039;28;20045;-53
2024/04/08 00:11:47;;;;;;;23.30;20.00;;;26.30;46.30;;;;;;10443949;28;20067;-50
2024/04/08 00:16:50;;;;;;;24.88;20.38;;;26.30;46.30;;;;;;10432059;28;20037;-50
2024/04/08 00:21:52;;;;;;;27.00;20.77;;;26.30;46.30;;;;;;10437159;28;20444;-51
2024/04/08 00:26:54;;;;;;;28.50;21.85;;;26.30;46.30;;;;;;10446157;28;20053;-52
2024/04/08 00:31:56;;;;;;;26.63;19.98;;;26.20;46.40;;;;;;10440683;28;20048;-53
2024/04/08 00:36:58;;;;;;;27.98;19.83;;;26.20;46.40;;;;;;10437741;28;20063;-53
2024/04/08 00:42:00;;;;;;;27.55;19.17;;;26.20;46.40;;;;;;10432618;28;20053;-52
2024/04/08 00:47:04;;;;;;;24.50;19.17;;;26.20;46.40;;;;;;10440997;28;20047;-50
2024/04/08 00:52:05;;;;;;;25.73;18.10;;;26.20;46.50;;;;;;10438685;28;20083;-55
2024/04/08 00:57:08;;;;;;;24.25;17.45;;;26.30;46.30;;;;;;10434370;28;20049;-55
2024/04/08 01:02:11;;;;;;;23.48;17.23;;;26.30;46.40;;;;;;10438695;28;20063;-51
2024/04/08 01:07:16;;;;;;;22.35;17.92;;;26.20;46.40;;;;;;10451603;28;20051;-52
2024/04/08 01:12:17;;;;;;;20.45;16.30;;;26.30;46.40;;;;;;10481485;28;20056;-52
2024/04/08 01:17:20;;;;;;;22.20;16.67;;;26.20;46.50;;;;;;10445874;28;20052;-55
2024/04/08 01:22:22;;;;;;;19.83;15.20;;;26.20;46.50;;;;;;10439763;28;20063;-54
2024/04/08 01:27:25;;;;;;;20.38;15.65;;;26.10;46.50;;;;;;10443453;28;20041;-61
2024/04/08 01:32:26;;;;;;;18.67;15.10;;;26.20;46.50;;;;;;10483056;28;20427;-58
2024/04/08 01:37:28;;;;;;;20.20;14.90;;;26.10;46.50;;;;;;10482535;28;20045;-54
2024/04/08 01:42:31;;;;;;;16.75;13.65;;;26.20;46.50;;;;;;10476993;28;20048;-56
2024/04/08 01:47:32;;;;;;;18.90;13.60;;;26.10;46.70;;;;;;10489112;28;20053;-55
2024/04/08 01:52:34;;;;;;;17.02;13.93;;;26.10;46.70;;;;;;10483860;28;20049;-56
2024/04/08 01:57:37;;;;;;;19.80;13.18;;;26.10;46.70;;;;;;10487653;28;20040;-55
2024/04/08 02:02:38;;;;;;;15.75;12.93;;;26.10;46.70;;;;;;10483858;28;20060;-52
2024/04/08 02:07:40;;;;;;;18.20;13.02;;;26.00;46.80;;;;;;10478096;28;20041;-54
2024/04/08 02:12:43;;;;;;;18.65;12.70;;;26.10;46.80;;;;;;10480435;28;20052;-54
2024/04/08 02:17:45;;;;;;;14.07;11.88;;;26.00;46.70;;;;;;10477713;28;20055;-56
2024/04/08 02:22:46;;;;;;;15.48;11.90;;;26.00;46.90;;;;;;10472641;28;20078;-57
2024/04/08 02:27:49;;;;;;;14.40;11.65;;;26.00;46.80;;;;;;10485438;28;20052;-54
2024/04/08 02:32:51;;;;;;;14.27;11.05;;;26.00;46.90;;;;;;10485089;28;20054;-55
2024/04/08 02:37:52;;;;;;;12.63;10.60;;;26.00;46.90;;;;;;10480389;28;20055;-54
2024/04/08 02:42:55;;;;;;;13.90;10.88;;;26.00;46.90;;;;;;10474060;28;20051;-56
2024/04/08 02:47:57;;;;;;;13.25;10.05;;;25.90;47.10;;;;;;10475410;28;20045;-55
2024/04/08 02:52:59;;;;;;;12.70;10.25;;;26.00;46.90;;;;;;10470474;28;20075;-57
2024/04/08 02:58:02;;;;;;;12.02;9.60;;;25.90;47.00;;;;;;10481823;28;20044;-53
2024/04/08 03:03:04;;;;;;;11.18;9.25;;;25.80;47.10;;;;;;10479431;28;20051;-53
2024/04/08 03:08:07;;;;;;;11.55;8.20;;;25.50;47.90;;;;;;10483017;28;20532;-54
2024/04/08 03:13:10;;;;;;;9.75;7.82;;;25.10;48.60;;;;;;10472488;28;20053;-55
2024/04/08 03:18:14;;;;;;;10.25;7.97;;;25.10;48.80;;;;;;10473100;28;20045;-53
2024/04/08 03:23:16;;;;;;;9.07;7.55;;;25.00;49.10;;;;;;10472648;28;20432;-53
2024/04/08 03:28:19;;;;;;;8.00;6.40;;;24.90;49.50;;;;;;10473457;28;20128;-56
2024/04/08 03:33:20;;;;;;;8.98;6.57;;;25.00;49.30;;;;;;10478033;28;20155;-53
2024/04/08 03:38:22;;;;;;;10.65;7.20;;;25.00;49.20;;;;;;10466511;28;20047;-54
2024/04/08 03:43:25;;;;;;;8.13;6.15;;;24.90;49.60;;;;;;10476239;28;20049;-56
2024/04/08 03:48:27;;;;;;;7.68;5.97;;;24.90;49.70;;;;;;10477472;28;20045;-56
2024/04/08 03:53:28;;;;;;;8.35;5.80;;;25.00;49.30;;;;;;10473393;28;20044;-55
2024/04/08 03:58:31;;;;;;;5.93;5.07;;;24.90;49.80;;;;;;10473486;28;20123;-52
2024/04/08 04:03:34;;;;;;;6.80;4.82;;;24.90;49.70;;;;;;10470198;28;20531;-55
2024/04/08 04:08:36;;;;;;;7.07;5.13;;;24.90;49.70;;;;;;10466169;28;20044;-53
2024/04/08 04:13:39;;;;;;;7.15;5.20;;;24.60;50.60;;;;;;10470721;28;20390;-56
2024/04/08 04:18:41;;;;;;;6.78;4.70;;;24.50;50.80;;;;;;10475260;28;20400;-53
2024/04/08 04:23:42;;;;;;;5.47;4.53;;;24.60;50.70;;;;;;10472815;28;20488;-58
2024/04/08 04:28:45;;;;;;;6.05;4.38;;;24.70;50.70;;;;;;10475019;28;20048;-58
2024/04/08 04:33:47;;;;;;;5.45;4.40;;;24.70;50.70;;;;;;10472608;28;20123;-56
2024/04/08 04:38:48;;;;;;;5.15;3.80;;;24.60;50.70;;;;;;10484622;28;20519;-58
2024/04/08 04:43:51;;;;;;;6.03;3.70;;;24.70;50.70;;;;;;10483045;28;20544;-57
2024/04/08 04:48:53;;;;;;;4.43;3.45;;;24.80;50.70;;;;;;10479377;28;20492;-56
2024/04/08 04:53:54;;;;;;;5.28;3.45;;;24.80;50.40;;;;;;10484754;28;20972;-51
2024/04/08 04:58:57;;;;;;;6.85;3.70;;;25.00;50.00;;;;;;10481598;28;20076;-57
2024/04/08 05:03:59;;;;;;;23.80;6.05;;;25.50;49.40;;;;;;10486674;28;20055;-55
2024/04/08 05:09:01;;;;;;;22.02;5.60;;;25.30;50.20;;;;;;10482275;28;20043;-55
2024/04/08 05:14:04;;;;;;;17.90;6.05;;;25.30;50.40;;;;;;10475832;28;20052;-57
2024/04/08 05:19:05;;;;;;;17.75;5.75;;;25.20;51.40;;;;;;10474604;28;20136;-58
2024/04/08 05:24:08;;;;;;;21.23;5.97;;;25.10;51.70;;;;;;10478406;28;20495;-55
2024/04/08 05:29:11;;;;;;;24.17;6.15;;;25.10;52.20;;;;;;10478572;28;20067;-57
2024/04/08 05:34:12;;;;;;;35.88;8.52;;;25.40;52.40;;;;;;10485448;28;20075;-56
2024/04/08 05:39:14;;;;;;;24.85;7.47;;;25.10;52.60;;;;;;10482700;28;20052;-55
2024/04/08 05:44:17;;;;;;;24.80;7.30;;;25.10;52.90;;;;;;10476674;28;20052;-54
2024/04/08 05:49:18;;;;;;;24.08;6.88;;;24.90;53.30;;;;;;10475309;28;20497;-56
2024/04/08 05:54:20;;;;;;;20.88;5.57;;;24.90;53.70;;;;;;10476218;28;20160;-56
2024/04/08 05:59:23;;;;;;;22.85;6.13;;;25.30;52.70;;;;;;10476955;28;20542;-56
2024/04/08 06:04:25;;;;;;;17.65;4.43;;;25.40;53.00;;;;;;10479582;28;20055;-57
2024/04/08 06:09:26;;;;;;;16.63;3.92;;;25.70;51.70;;;;;;10480185;28;20057;-55
2024/04/08 06:14:29;;;;;;;17.92;3.53;;;25.40;51.80;;;;;;10483689;28;20062;-54
2024/04/08 06:19:32;;;;;;;17.05;4.22;;;25.40;51.30;;;;;;10473280;28;20037;-54
2024/04/08 06:24:34;;;;;;;10.93;3.40;;;25.60;50.20;;;;;;10474024;28;20508;-56
2024/04/08 06:29:37;;;;;;;7.35;2.70;;;25.40;50.40;;;;;;10474441;28;20113;-52
2024/04/08 06:34:39;;;;;;;8.57;2.58;;;25.30;50.40;;;;;;10480474;28;20045;-54
2024/04/08 06:39:40;;;;;;;7.72;2.60;;;25.10;51.10;;;;;;10476457;28;20412;-56
2024/04/08 06:44:47;;;;;;;8.00;2.45;;;25.20;51.30;;;;;;10486469;28;20510;-54
2024/04/08 06:49:49;;;;;;;7.65;2.55;;;25.10;51.30;;;;;;10478181;28;20048;-53
2024/04/08 06:54:50;;;;;;;7.43;2.53;;;25.20;51.00;;;;;;10475005;28;20119;-58
2024/04/08 06:59:53;;;;;;;4.70;2.22;;;25.20;51.00;;;;;;10478220;28;20052;-55
2024/04/08 07:04:55;;;;;;;5.22;2.42;;;25.20;51.00;;;;;;10476824;28;20048;-57
2024/04/08 07:09:56;;;;;;;6.15;2.35;;;25.10;51.30;;;;;;10480137;28;20048;-56
2024/04/08 07:14:59;;;;;;;4.50;2.08;;;25.10;51.00;;;;;;10481508;28;20128;-57
2024/04/08 07:20:01;;;;;;;4.95;2.10;;;25.30;50.90;;;;;;10480038;28;20045;-57
2024/04/08 07:25:03;;;;;;;3.08;1.77;;;25.20;50.90;;;;;;10464785;28;20045;-55
2024/04/08 07:30:07;;;;;;;5.32;1.70;;;25.00;51.20;;;;;;10482711;28;20048;-57
2024/04/08 07:35:09;;;;;;;4.88;1.80;;;25.10;51.30;;;;;;10472808;28;20056;-58
2024/04/08 07:40:11;;;;;;;5.30;1.83;;;25.00;51.70;;;;;;10476952;28;20044;-57
2024/04/08 07:45:14;;;;;;;6.72;1.60;;;25.10;51.30;;;;;;10484078;28;20045;-56
2024/04/08 07:50:16;;;;;;;2.55;1.30;;;25.00;51.40;;;;;;10481760;28;20048;-54
2024/04/08 07:55:18;;;;;;;5.85;1.73;;;25.00;51.50;;;;;;10478342;28;20047;-57
2024/04/08 08:00:21;;;;;;;4.18;1.60;;;25.00;51.50;;;;;;10469052;28;20128;-55
2024/04/08 08:05:22;;;;;;;2.45;1.23;;;25.10;51.30;;;;;;10464014;28;20070;-55
2024/04/08 08:10:24;;;;;;;5.05;1.52;;;25.00;51.40;;;;;;10460637;28;20049;-52
2024/04/08 08:15:27;;;;;;;2.63;1.40;;;25.00;51.20;;;;;;10451744;28;20128;-56
2024/04/08 08:20:30;;;;;;;2.45;1.30;;;25.10;51.00;;;;;;10452148;28;20124;-54
2024/04/08 08:25:35;;;;;;;6.50;1.50;;;25.00;51.20;;;;;;10448579;28;20044;-55
2024/04/08 08:30:38;;;;;;;3.60;1.38;;;25.10;50.90;;;;;;10443666;28;20045;-54
2024/04/08 08:35:40;;;;;;;3.85;1.25;;;25.10;50.50;;;;;;10441672;28;20130;-58
2024/04/08 08:40:43;;;;;;;4.40;1.20;;;25.10;50.60;;;;;;10444830;28;20110;-54
2024/04/08 08:45:47;;;;;;;2.67;1.08;;;25.10;50.30;;;;;;10439362;28;20124;-54
2024/04/08 08:50:49;;;;;;;4.60;1.30;;;25.10;50.30;;;;;;10448219;28;20049;-55
2024/04/08 08:55:53;;;;;;;2.88;1.02;;;25.20;50.20;;;;;;10448869;28;20041;-56
2024/04/08 09:00:57;;;;;;;3.38;1.17;;;25.10;50.30;;;;;;10443808;28;20060;-58
2024/04/08 09:05:58;;;;;;;4.05;1.17;;;25.10;50.20;;;;;;10442556;28;20045;-57
2024/04/08 09:11:05;;;;;;;2.80;1.20;;;24.90;50.50;;;;;;10436667;28;20072;-57
2024/04/08 09:16:08;;;;;;;2.67;1.20;;;25.00;50.50;;;;;;10428713;28;20069;-56
2024/04/08 09:21:10;;;;;;;2.10;1.02;;;25.10;50.30;;;;;;10434032;28;20047;-58
2024/04/08 09:26:12;;;;;;;1.48;0.90;;;25.10;50.50;;;;;;10447426;28;20044;-57
2024/04/08 09:31:16;;;;;;;2.55;1.20;;;25.10;50.30;;;;;;10446610;28;20053;-57
2024/04/08 09:36:17;;;;;;;1.90;1.10;;;25.20;50.30;;;;;;10439274;28;20056;-58
2024/04/08 09:41:19;;;;;;;3.50;1.17;;;24.90;50.80;;;;;;10441778;28;20053;-52
2024/04/08 09:46:22;;;;;;;2.38;1.35;;;25.00;50.60;;;;;;10440370;28;20412;-56
2024/04/08 09:51:23;;;;;;;4.50;1.35;;;25.00;50.70;;;;;;10430927;28;20115;-56
2024/04/08 09:56:25;;;;;;;2.53;1.00;;;24.80;51.20;;;;;;10435824;28;20055;-58
2024/04/08 10:01:28;;;;;;;1.95;1.00;;;24.80;51.30;;;;;;10439397;28;20487;-55
2024/04/08 10:06:30;;;;;;;2.13;1.10;;;24.80;51.30;;;;;;10445760;28;20135;-53
2024/04/08 10:11:32;;;;;;;2.13;1.10;;;24.80;51.20;;;;;;10439268;28;20080;-58
2024/04/08 10:16:38;;;;;;;1.67;0.88;;;24.90;50.90;;;;;;10447346;28;20049;-57
2024/04/08 10:21:39;;;;;;;2.38;1.20;;;25.00;50.70;;;;;;10442470;28;20120;-53
2024/04/08 10:26:41;;;;;;;2.72;1.10;;;24.80;51.30;;;;;;10436536;28;20091;-54
2024/04/08 10:31:44;;;;;;;2.53;0.90;;;24.70;51.40;;;;;;10478900;28;20051;-56
2024/04/08 10:36:45;;;;;;;3.78;1.30;;;25.00;51.00;;;;;;10448261;28;20412;-57
2024/04/08 10:41:47;;;;;;;4.03;1.58;;;24.80;51.40;;;;;;10442606;28;20044;-56
2024/04/08 10:46:50;;;;;;;2.75;1.60;;;24.60;51.90;;;;;;10440222;28;20562;-57
2024/04/08 10:51:51;;;;;;;6.30;1.38;;;24.70;51.90;;;;;;10435916;28;20111;-52
2024/04/08 10:56:53;;;;;;;13.35;1.40;;;24.60;52.20;;;;;;10439317;28;20059;-56
2024/04/08 11:01:57;;;;;;;8.38;1.23;;;24.90;52.00;;;;;;10433238;28;20122;-57
2024/04/08 11:06:59;;;;;;;3.30;1.40;;;25.00;51.70;;;;;;10441331;28;20040;-57
2024/04/08 11:12:04;;;;;;;4.18;1.50;;;25.00;51.80;;;;;;10441746;28;20058;-56
2024/04/08 11:17:10;;;;;;;4.78;1.10;;;25.10;51.50;;;;;;10434065;28;20429;-57
2024/04/08 11:22:11;;;;;;;4.72;1.10;;;25.10;51.60;;;;;;10439042;28;20055;-57
2024/04/08 11:27:13;;;;;;;2.80;1.02;;;25.40;51.10;;;;;;10442033;28;20493;-58
2024/04/08 11:32:16;;;;;;;4.82;1.33;;;25.40;51.10;;;;;;10441763;28;20160;-56
2024/04/08 11:37:18;;;;;;;5.18;1.13;;;25.60;50.70;;;;;;10441091;28;20063;-57
2024/04/08 11:42:19;;;;;;;2.42;1.08;;;25.70;50.20;;;;;;10435810;28;20140;-59
2024/04/08 11:47:22;;;;;;;6.32;1.42;;;25.80;49.80;;;;;;10427698;28;20053;-58
2024/04/08 11:52:24;;;;;;;1.88;0.98;;;25.80;49.50;;;;;;10429770;28;20057;-56
2024/04/08 11:58:48;;;;;;;;;;;25.90;49.40;;;;;;11371017;25;20319;-57
2024/04/08 12:03:51;;;;;;;5.53;0.93;;;26.00;49.10;;;;;;11194836;26;19932;-56
2024/04/08 12:08:56;;;;;;;2.50;0.98;;;26.00;49.00;;;;;;11171167;26;20000;-55
2024/04/08 12:14:02;;;;;;;2.58;0.98;;;26.10;49.20;;;;;;11182986;26;20011;-58
2024/04/08 12:19:06;;;;;;;2.95;0.95;;;26.30;48.90;;;;;;11188468;26;20044;-57
2024/04/08 12:24:09;;;;;;;5.68;1.48;;;26.10;49.30;;;;;;11252397;26;19999;-57
2024/04/08 12:29:15;;;;;;;5.55;1.17;;;26.00;49.70;;;;;;11251928;26;20010;-57
2024/04/08 12:34:18;;;;;;;4.60;1.20;;;26.00;49.60;;;;;;11264100;26;20003;-58
2024/04/08 12:39:22;;;;;;;2.88;1.23;;;26.00;49.60;;;;;;11275982;26;20015;-56
2024/04/08 12:44:28;;;;;;;3.28;1.00;;;26.00;49.30;;;;;;11276987;26;20010;-56
2024/04/08 12:49:31;;;;;;;2.72;1.10;;;26.10;49.10;;;;;;11253932;26;20343;-53
2024/04/08 12:54:34;;;;;;;5.45;1.10;;;26.10;49.20;;;;;;11265624;26;20071;-58
2024/04/08 12:59:40;;;;;;;2.75;0.90;;;26.00;49.40;;;;;;11253715;26;20003;-55
2024/04/08 13:04:43;;;;;;;2.35;0.98;;;25.90;49.50;;;;;;11267371;26;20014;-56
2024/04/08 13:09:47;;;;;;;3.97;1.00;;;26.00;49.30;;;;;;11244777;26;20466;-56
2024/04/08 13:14:52;;;;;;;2.85;1.00;;;25.90;49.60;;;;;;11225391;26;20047;-57
2024/04/08 13:19:56;;;;;;;3.78;2.00;;;25.80;49.40;;;;;;11212972;26;20015;-55
2024/04/08 13:24:59;;;;;;;3.25;1.20;;;25.80;49.30;;;;;;11225657;26;20347;-55
2024/04/08 13:30:06;;;;;;;3.53;1.10;;;25.70;49.50;;;;;;11227499;26;20003;-54
2024/04/08 13:35:09;;;;;;;2.55;1.10;;;25.70;49.50;;;;;;11233600;26;20046;-54
2024/04/08 13:40:13;;;;;;;2.00;0.90;;;25.70;49.50;;;;;;11231496;26;20018;-55
2024/04/08 13:45:19;;;;;;;2.88;1.13;;;25.60;50.00;;;;;;11222979;26;20018;-56
2024/04/08 13:50:23;;;;;;;2.85;1.20;;;25.70;49.50;;;;;;11232772;26;20008;-55
2024/04/08 13:55:26;;;;;;;2.45;1.20;;;25.70;50.10;;;;;;11228794;26;20003;-54
2024/04/08 14:00:32;;;;;;;3.80;1.23;;;25.60;49.60;;;;;;11221644;26;20003;-56
2024/04/08 14:05:35;;;;;;;4.10;1.10;;;25.70;49.70;;;;;;11230590;26;19999;-53
2024/04/08 14:10:38;;;;;;;2.88;1.25;;;25.70;49.20;;;;;;11214698;26;20014;-55
2024/04/08 14:15:44;;;;;;;2.70;1.20;;;25.80;49.00;;;;;;11225248;26;20018;-55
2024/04/08 14:20:48;;;;;;;3.47;1.25;;;25.80;49.20;;;;;;11226131;26;20408;-50
2024/04/08 14:25:51;;;;;;;4.15;1.30;;;25.60;49.30;;;;;;11224914;26;19999;-52
2024/04/08 14:30:57;;;;;;;3.05;1.10;;;25.40;49.90;;;;;;11219383;26;20010;-51
2024/04/08 14:36:00;;;;;;;4.03;1.30;;;25.40;50.00;;;;;;11208015;26;20010;-52
2024/04/08 14:41:05;;;;;;;4.70;1.20;;;25.10;51.10;;;;;;11211515;26;20246;-53
2024/04/08 14:46:10;;;;;;;6.00;1.30;;;25.30;51.60;;;;;;11209154;26;20010;-51
2024/04/08 14:51:14;;;;;;;26.88;1.83;;;25.50;52.40;;;;;;11208270;26;20021;-56
2024/04/08 14:56:19;;;;;;;13.23;2.05;;;25.30;52.10;;;;;;11227251;26;20026;-52
2024/04/08 15:01:25;;;;;;;10.60;2.22;;;24.30;55.20;;;;;;11216679;26;20351;-57
2024/04/08 15:06:28;;;;;;;12.25;2.20;;;23.90;56.30;;;;;;11222295;26;20007;-55
2024/04/08 15:11:33;;;;;;;9.38;1.77;;;23.70;57.50;;;;;;11221326;26;20010;-56
2024/04/08 15:16:39;;;;;;;10.95;1.90;;;23.50;55.80;;;;;;11219422;26;20000;-59
2024/04/08 15:21:42;;;;;;;5.15;1.67;;;23.50;56.40;;;;;;11237186;26;19995;-53
2024/04/08 15:26:46;;;;;;;5.65;1.42;;;23.30;56.70;;;;;;11221251;26;20010;-54
2024/04/08 15:31:52;;;;;;;5.68;1.30;;;23.20;56.50;;;;;;11207866;26;20031;-60
2024/04/08 15:36:55;;;;;;;5.55;1.58;;;23.10;56.80;;;;;;11218668;26;20014;-59
2024/04/08 15:41:59;;;;;;;7.88;1.70;;;23.00;57.10;;;;;;11212453;26;20012;-61
2024/04/08 15:47:04;;;;;;;10.60;1.67;;;23.20;57.50;;;;;;11216973;26;20056;-61
2024/04/08 15:52:08;;;;;;;5.15;1.60;;;23.10;57.50;;;;;;11220928;26;20440;-61
2024/04/08 15:57:12;;;;;;;22.10;2.47;;;22.90;57.80;;;;;;11215634;26;20024;-64
2024/04/08 16:02:17;;;;;;;13.85;2.10;;;23.10;58.70;;;;;;11214033;26;20000;-63
2024/04/08 16:07:21;;;;;;;16.42;1.92;;;23.10;58.20;;;;;;11215790;26;20008;-65
2024/04/08 16:12:25;;;;;;;13.90;2.53;;;23.20;58.70;;;;;;11210541;26;20455;-64
2024/04/08 16:17:30;;;;;;;8.23;1.83;;;23.10;58.70;;;;;;11215043;26;20039;-64
2024/04/08 16:22:34;;;;;;;10.30;2.03;;;23.00;58.40;;;;;;11216657;26;20003;-64
2024/04/08 16:27:38;;;;;;;9.30;2.38;;;22.90;58.40;;;;;;11211541;26;20498;-65
2024/04/08 16:32:44;;;;;;;7.22;1.90;;;22.90;58.60;;;;;;11209371;26;20161;-62
2024/04/08 16:37:48;;;;;;;17.95;2.22;;;22.90;58.70;;;;;;11204324;26;20007;-64
2024/04/08 16:42:51;;;;;;;11.27;2.40;;;23.00;58.90;;;;;;11215221;26;20011;-64
2024/04/08 16:47:57;;;;;;;13.75;2.05;;;22.90;58.80;;;;;;11148451;26;20018;-63
2024/04/08 16:53:01;;;;;;;13.85;2.10;;;22.90;58.70;;;;;;11144498;26;20603;-63
2024/04/08 16:58:04;;;;;;;15.85;2.30;;;22.90;59.00;;;;;;11136955;26;20076;-64
2024/04/08 17:03:10;;;;;;;7.57;1.77;;;22.90;58.90;;;;;;11142100;26;20001;-64
2024/04/08 17:08:13;;;;;;;9.38;1.88;;;22.80;59.40;;;;;;11138172;26;20008;-63
2024/04/08 17:13:16;;;;;;;11.77;1.90;;;22.70;59.00;;;;;;11143542;26;20016;-64
2024/04/08 17:18:22;;;;;;;20.58;2.28;;;22.80;59.20;;;;;;11145300;26;20475;-64
2024/04/08 17:23:26;;;;;;;17.33;1.88;;;22.90;59.00;;;;;;11141515;26;20015;-62
2024/04/08 17:28:30;;;;;;;9.55;2.08;;;23.00;59.00;;;;;;11135110;26;20008;-57
2024/04/08 17:33:37;;;;;;;10.43;1.63;;;23.10;58.40;;;;;;11149947;26;20444;-61
2024/04/08 17:38:40;;;;;;;12.27;1.75;;;22.80;59.00;;;;;;11138852;26;20015;-62
2024/04/08 17:43:44;;;;;;;9.52;1.70;;;22.90;58.50;;;;;;11169842;26;20008;-58
2024/04/08 17:48:50;;;;;;;7.07;1.42;;;22.80;58.30;;;;;;11153054;26;20000;-56
2024/04/08 17:53:53;;;;;;;11.20;1.90;;;22.80;58.20;;;;;;11167215;26;20800;-59
2024/04/08 17:58:57;;;;;;;9.15;1.60;;;22.90;58.50;;;;;;11198409;26;20015;-61
2024/04/08 18:04:02;;;;;;;13.45;1.80;;;22.80;58.00;;;;;;11156825;26;19999;-56
2024/04/08 18:09:06;;;;;;;11.02;1.70;;;22.90;58.20;;;;;;11147937;26;20008;-57
2024/04/08 18:14:09;;;;;;;6.65;1.65;;;22.90;57.90;;;;;;11147767;26;20010;-60
2024/04/08 18:19:15;;;;;;;9.27;1.70;;;22.90;57.50;;;;;;11152484;26;20008;-59
2024/04/08 18:24:18;;;;;;;5.60;1.85;;;22.90;57.40;;;;;;11149588;26;20340;-57
2024/04/08 18:29:21;;;;;;;14.82;2.83;;;22.90;57.20;;;;;;11142835;26;20007;-59
2024/04/08 18:34:27;;;;;;;6.43;2.22;;;22.90;57.50;;;;;;11153865;26;20015;-58
2024/04/08 18:39:31;;;;;;;6.57;2.13;;;23.00;57.10;;;;;;11165734;26;20008;-58
2024/04/08 18:44:34;;;;;;;24.70;2.45;;;23.10;57.20;;;;;;11155646;26;20004;-58
2024/04/08 18:49:40;;;;;;;6.82;1.85;;;23.10;57.90;;;;;;11155384;26;20351;-59
2024/04/08 18:54:45;;;;;;;9.32;1.60;;;22.90;56.90;;;;;;11167084;26;20126;-58
2024/04/08 18:59:49;;;;;;;5.13;1.45;;;23.00;56.80;;;;;;11197388;26;20009;-55
2024/04/08 19:04:54;;;;;;;4.72;1.58;;;23.00;56.60;;;;;;11144282;26;20453;-57
2024/04/08 19:09:58;;;;;;;5.30;1.63;;;22.90;56.70;;;;;;11135638;26;20004;-56
2024/04/08 19:15:01;;;;;;;9.23;1.60;;;23.10;56.70;;;;;;11129612;26;20011;-56
2024/04/08 19:20:08;;;;;;;20.10;1.75;;;23.10;57.00;;;;;;11127479;26;20004;-54
2024/04/08 19:25:12;;;;;;;11.38;1.75;;;23.20;57.90;;;;;;11135180;26;20007;-57
2024/04/08 19:30:15;;;;;;;9.15;1.73;;;23.10;57.40;;;;;;11120731;26;20468;-55
2024/04/08 19:35:21;;;;;;;17.67;2.15;;;22.90;57.80;;;;;;11155182;26;20022;-52
2024/04/08 19:40:24;;;;;;;17.05;1.88;;;22.90;58.60;;;;;;11216853;26;19998;-56
2024/04/08 19:45:27;;;;;;;8.50;1.50;;;22.90;58.20;;;;;;11176604;26;20413;-55
2024/04/08 19:50:33;;;;;;;4.53;1.23;;;22.80;58.50;;;;;;11123036;26;19996;-58
2024/04/08 19:55:36;;;;;;;10.00;1.48;;;22.70;58.70;;;;;;11144091;26;20068;-54
2024/04/08 20:00:42;;;;;;;5.05;1.30;;;22.70;58.70;;;;;;11151453;26;20019;-57
2024/04/08 20:05:56;;;;;;;2.72;1.30;;;22.60;58.50;;;;;;11147624;26;20458;-56
2024/04/08 20:11:02;;;;;;;3.55;1.23;;;22.60;58.60;;;;;;11148291;26;20348;-55
2024/04/08 20:16:09;;;;;;;3.88;1.60;;;22.60;58.60;;;;;;11140814;26;20011;-56
2024/04/08 20:21:16;;;;;;;2.05;1.17;;;22.50;58.70;;;;;;11164132;26;19999;-55
2024/04/08 20:26:19;;;;;;;3.67;1.20;;;22.50;58.70;;;;;;11150251;26;20000;-57
2024/04/08 20:31:22;;;;;;;4.45;1.30;;;22.40;58.90;;;;;;11140900;26;20000;-54
2024/04/08 20:36:28;;;;;;;1.75;1.08;;;22.40;59.00;;;;;;11155284;26;19999;-60
2024/04/08 20:41:32;;;;;;;2.80;1.30;;;22.40;59.00;;;;;;11164938;26;20008;-56
2024/04/08 20:46:35;;;;;;;2.72;1.15;;;22.30;59.10;;;;;;11164609;26;20001;-60
2024/04/08 20:51:41;;;;;;;2.90;1.15;;;22.20;59.20;;;;;;11150938;26;20015;-55
2024/04/08 20:56:44;;;;;;;3.22;1.15;;;22.20;59.40;;;;;;11141485;26;20008;-59
2024/04/08 21:01:48;;;;;;;2.15;1.00;;;22.20;59.60;;;;;;11147116;26;20001;-60
2024/04/08 21:06:54;;;;;;;4.45;1.20;;;22.10;59.50;;;;;;11144033;26;20841;-52
2024/04/08 21:11:57;;;;;;;2.83;1.25;;;22.10;59.60;;;;;;11138128;26;20011;-55
2024/04/08 21:17:01;;;;;;;6.93;1.13;;;22.10;59.70;;;;;;11140007;26;20019;-57
2024/04/08 21:22:06;;;;;;;2.65;1.20;;;22.10;59.70;;;;;;11146839;26;20737;-55
2024/04/08 21:27:10;;;;;;;3.03;1.40;;;22.00;59.60;;;;;;11142334;26;20010;-55
2024/04/08 21:32:14;;;;;;;2.50;1.20;;;22.00;59.60;;;;;;11143064;26;20073;-60
2024/04/08 21:37:20;;;;;;;2.40;1.20;;;22.00;59.70;;;;;;11151523;26;20384;-56
2024/04/08 21:42:23;;;;;;;2.45;1.05;;;22.00;59.80;;;;;;11141536;26;20012;-58
2024/04/08 21:47:27;;;;;;;3.05;1.20;;;21.90;59.70;;;;;;11142592;26;20454;-55
2024/04/08 21:52:33;;;;;;;2.70;1.48;;;21.90;59.70;;;;;;11149762;26;20011;-57
2024/04/08 21:57:36;;;;;;;2.15;1.20;;;21.90;59.80;;;;;;11121126;26;20468;-57
2024/04/08 22:02:39;;;;;;;2.97;1.10;;;21.90;59.80;;;;;;11144011;26;20004;-58
2024/04/08 22:07:45;;;;;;;2.00;1.20;;;21.90;59.80;;;;;;11142067;26;20012;-56
2024/04/08 22:12:49;;;;;;;2.72;1.20;;;21.80;59.80;;;;;;11150618;26;20048;-59
2024/04/08 22:17:52;;;;;;;2.45;1.27;;;21.80;59.90;;;;;;11143867;26;20004;-57
2024/04/08 22:22:58;;;;;;;2.47;1.00;;;21.80;60.10;;;;;;11143124;26;20048;-58
2024/04/08 22:28:01;;;;;;;2.08;1.25;;;21.80;60.00;;;;;;11152583;26;20011;-56
2024/04/08 22:33:05;;;;;;;1.90;1.10;;;21.90;60.30;;;;;;11151067;26;20011;-56
2024/04/08 22:38:11;;;;;;;1.42;1.02;;;21.80;60.40;;;;;;11209720;26;20744;-56
2024/04/08 22:43:14;;;;;;;1.83;1.02;;;21.80;60.40;;;;;;11166106;26;20000;-54
2024/04/08 22:48:17;;;;;;;3.53;1.00;;;21.80;60.50;;;;;;11162519;26;20037;-53
2024/04/08 22:53:24;;;;;;;3.00;1.10;;;21.80;60.60;;;;;;11153559;26;20343;-56
2024/04/08 22:58:27;;;;;;;2.40;0.90;;;21.70;60.60;;;;;;11145872;26;20036;-56
2024/04/08 23:03:30;;;;;;;2.25;1.02;;;21.70;60.70;;;;;;11157811;26;20019;-52
2024/04/08 23:08:36;;;;;;;1.58;1.00;;;21.70;60.80;;;;;;11149854;26;20014;-56
2024/04/08 23:13:39;;;;;;;1.30;0.80;;;21.70;60.80;;;;;;11167441;26;20374;-61
2024/04/08 23:18:43;;;;;;;1.35;1.00;;;21.70;60.90;;;;;;11154337;26;20011;-57
2024/04/08 23:23:49;;;;;;;1.40;0.80;;;21.60;61.00;;;;;;11207449;26;20003;-59
2024/04/08 23:28:52;;;;;;;1.00;0.82;;;21.60;60.90;;;;;;11153428;26;20014;-60
2024/04/08 23:33:55;;;;;;;2.10;1.00;;;21.60;61.10;;;;;;11154423;26;20015;-55
2024/04/08 23:39:01;;;;;;;1.13;1.02;;;21.60;61.10;;;;;;11138456;26;20006;-59
2024/04/08 23:44:04;;;;;;;1.13;0.90;;;21.60;61.00;;;;;;11153990;26;20004;-51
2024/04/08 23:49:08;;;;;;;1.30;0.90;;;21.60;61.20;;;;;;11220386;26;20014;-60
2024/04/08 23:54:14;;;;;;;0.98;0.80;;;21.60;61.20;;;;;;11151896;26;20010;-60
2024/04/08 23:59:17;;;;;;;1.10;0.73;;;21.60;61.20;;;;;;11210125;26;20008;-59
